sensor_id;sensor_type;location;lat;lon;timestamp;pressure;altitude;pressure_sealevel;temperature;humidity
78890;BME280;68279;48.964;14.502;2023-11-19T00:00:31;97312.16;;;1.26;100.00
78890;BME280;68279;48.964;14.502;2023-11-19T00:02:56;97307.31;;;1.23;100.00
78890;BME280;68279;48.964;14.502;2023-11-19T00:05:22;97292.31;;;1.23;100.00
78890;BME280;68279;48.964;14.502;2023-11-19T00:07:48;97290.50;;;1.24;100.00
78890;BME280;68279;48.964;14.502;2023-11-19T00:10:14;97289.84;;;1.28;100.00
78890;BME280;68279;48.964;14.502;2023-11-19T00:12:45;97288.59;;;1.31;100.00
78890;BME280;68279;48.964;14.502;2023-11-19T00:15:14;97280.66;;;1.37;100.00
78890;BME280;68279;48.964;14.502;2023-11-19T00:17:41;97279.63;;;1.38;100.00
78890;BME280;68279;48.964;14.502;2023-11-19T00:20:11;97283.72;;;1.34;100.00
78890;BME280;68279;48.964;14.502;2023-11-19T00:22:37;97280.69;;;1.31;100.00
78890;BME280;68279;48.964;14.502;2023-11-19T00:25:03;97268.47;;;1.43;100.00
78890;BME280;68279;48.964;14.502;2023-11-19T00:27:29;97268.00;;;1.46;100.00
78890;BME280;68279;48.964;14.502;2023-11-19T00:29:54;97265.75;;;1.50;100.00
78890;BME280;68279;48.964;14.502;2023-11-19T00:32:20;97259.03;;;1.54;100.00
78890;BME280;68279;48.964;14.502;2023-11-19T00:34:46;97250.47;;;1.58;100.00
78890;BME280;68279;48.964;14.502;2023-11-19T00:37:13;97241.59;;;1.53;100.00
78890;BME280;68279;48.964;14.502;2023-11-19T00:39:43;97244.25;;;1.53;100.00
78890;BME280;68279;48.964;14.502;2023-11-19T00:42:09;97229.81;;;1.55;100.00
78890;BME280;68279;48.964;14.502;2023-11-19T00:44:38;97229.47;;;1.52;100.00
78890;BME280;68279;48.964;14.502;2023-11-19T00:47:04;97219.94;;;1.51;100.00
78890;BME280;68279;48.964;14.502;2023-11-19T00:49:30;97203.91;;;1.52;100.00
78890;BME280;68279;48.964;14.502;2023-11-19T00:51:58;97198.19;;;1.55;100.00
78890;BME280;68279;48.964;14.502;2023-11-19T00:54:24;97204.25;;;1.56;100.00
78890;BME280;68279;48.964;14.502;2023-11-19T00:56:54;97192.91;;;1.55;100.00
78890;BME280;68279;48.964;14.502;2023-11-19T00:59:20;97190.72;;;1.52;100.00
78890;BME280;68279;48.964;14.502;2023-11-19T01:01:46;97192.69;;;1.57;100.00
78890;BME280;68279;48.964;14.502;2023-11-19T01:04:14;97182.94;;;1.57;100.00
78890;BME280;68279;48.964;14.502;2023-11-19T01:06:40;97173.03;;;1.59;100.00
78890;BME280;68279;48.964;14.502;2023-11-19T01:09:05;97171.78;;;1.62;100.00
78890;BME280;68279;48.964;14.502;2023-11-19T01:11:31;97176.59;;;1.65;100.00
78890;BME280;68279;48.964;14.502;2023-11-19T01:13:56;97171.09;;;1.66;100.00
78890;BME280;68279;48.964;14.502;2023-11-19T01:16:22;97164.09;;;1.60;100.00
78890;BME280;68279;48.964;14.502;2023-11-19T01:18:48;97172.00;;;1.60;100.00
78890;BME280;68279;48.964;14.502;2023-11-19T01:21:14;97176.59;;;1.65;100.00
78890;BME280;68279;48.964;14.502;2023-11-19T01:23:40;97174.63;;;1.60;100.00
78890;BME280;68279;48.964;14.502;2023-11-19T01:26:12;97172.19;;;1.59;100.00
78890;BME280;68279;48.964;14.502;2023-11-19T01:28:38;97169.34;;;1.60;100.00
78890;BME280;68279;48.964;14.502;2023-11-19T01:31:11;97160.78;;;1.65;100.00
78890;BME280;68279;48.964;14.502;2023-11-19T01:33:36;97156.97;;;1.61;100.00
78890;BME280;68279;48.964;14.502;2023-11-19T01:36:02;97165.31;;;1.58;100.00
78890;BME280;68279;48.964;14.502;2023-11-19T01:38:29;97165.31;;;1.58;100.00
78890;BME280;68279;48.964;14.502;2023-11-19T01:40:56;97146.66;;;1.59;100.00
78890;BME280;68279;48.964;14.502;2023-11-19T01:43:32;97143.13;;;1.65;100.00
78890;BME280;68279;48.964;14.502;2023-11-19T01:45:58;97138.66;;;1.66;100.00
78890;BME280;68279;48.964;14.502;2023-11-19T01:48:24;97140.50;;;1.65;100.00
78890;BME280;68279;48.964;14.502;2023-11-19T01:50:50;97132.00;;;1.63;100.00
78890;BME280;68279;48.964;14.502;2023-11-19T01:53:18;97125.63;;;1.71;100.00
78890;BME280;68279;48.964;14.502;2023-11-19T01:55:43;97116.34;;;1.68;100.00
78890;BME280;68279;48.964;14.502;2023-11-19T01:58:09;97116.75;;;1.65;100.00
78890;BME280;68279;48.964;14.502;2023-11-19T02:00:35;97114.81;;;1.61;100.00
78890;BME280;68279;48.964;14.502;2023-11-19T02:03:00;97098.31;;;1.65;100.00
78890;BME280;68279;48.964;14.502;2023-11-19T02:05:26;97115.59;;;1.61;100.00
78890;BME280;68279;48.964;14.502;2023-11-19T02:07:52;97101.97;;;1.64;100.00
78890;BME280;68279;48.964;14.502;2023-11-19T02:10:17;97096.47;;;1.66;100.00
78890;BME280;68279;48.964;14.502;2023-11-19T02:12:45;97079.63;;;1.67;100.00
78890;BME280;68279;48.964;14.502;2023-11-19T02:15:11;97077.53;;;1.57;100.00
78890;BME280;68279;48.964;14.502;2023-11-19T02:17:36;97063.78;;;1.55;100.00
78890;BME280;68279;48.964;14.502;2023-11-19T02:20:03;97050.59;;;1.55;100.00
78890;BME280;68279;48.964;14.502;2023-11-19T02:22:32;97040.56;;;1.46;100.00
78890;BME280;68279;48.964;14.502;2023-11-19T02:25:04;97037.72;;;1.47;100.00
78890;BME280;68279;48.964;14.502;2023-11-19T02:27:31;97032.81;;;1.51;100.00
78890;BME280;68279;48.964;14.502;2023-11-19T02:29:59;97019.09;;;1.60;100.00
78890;BME280;68279;48.964;14.502;2023-11-19T02:32:27;97027.44;;;1.57;100.00
78890;BME280;68279;48.964;14.502;2023-11-19T02:34:53;97017.50;;;1.59;100.00
78890;BME280;68279;48.964;14.502;2023-11-19T02:37:19;97003.16;;;1.55;100.00
78890;BME280;68279;48.964;14.502;2023-11-19T02:39:45;96999.13;;;1.53;100.00
78890;BME280;68279;48.964;14.502;2023-11-19T02:42:10;97001.41;;;1.49;100.00
78890;BME280;68279;48.964;14.502;2023-11-19T02:44:36;97004.84;;;1.50;100.00
78890;BME280;68279;48.964;14.502;2023-11-19T02:47:01;97012.53;;;1.51;100.00
78890;BME280;68279;48.964;14.502;2023-11-19T02:49:28;97018.81;;;1.50;100.00
78890;BME280;68279;48.964;14.502;2023-11-19T02:51:54;97020.44;;;1.51;100.00
78890;BME280;68279;48.964;14.502;2023-11-19T02:54:19;97022.06;;;1.52;100.00
78890;BME280;68279;48.964;14.502;2023-11-19T02:56:46;97018.16;;;1.55;100.00
78890;BME280;68279;48.964;14.502;2023-11-19T02:59:20;97008.19;;;1.57;100.00
78890;BME280;68279;48.964;14.502;2023-11-19T03:01:53;97009.50;;;1.66;100.00
78890;BME280;68279;48.964;14.502;2023-11-19T03:04:19;97008.34;;;1.62;100.00
78890;BME280;68279;48.964;14.502;2023-11-19T03:06:48;97010.41;;;1.60;100.00
78890;BME280;68279;48.964;14.502;2023-11-19T03:09:14;96991.94;;;1.60;100.00
78890;BME280;68279;48.964;14.502;2023-11-19T03:11:40;96991.72;;;1.61;100.00
78890;BME280;68279;48.964;14.502;2023-11-19T03:14:05;96983.66;;;1.56;100.00
78890;BME280;68279;48.964;14.502;2023-11-19T03:16:31;96978.28;;;1.51;100.00
78890;BME280;68279;48.964;14.502;2023-11-19T03:18:57;96984.34;;;1.52;100.00
78890;BME280;68279;48.964;14.502;2023-11-19T03:21:29;96983.44;;;1.58;100.00
78890;BME280;68279;48.964;14.502;2023-11-19T03:23:54;96987.47;;;1.60;100.00
78890;BME280;68279;48.964;14.502;2023-11-19T03:26:21;96983.34;;;1.64;100.00
78890;BME280;68279;48.964;14.502;2023-11-19T03:28:47;96962.72;;;1.61;100.00
78890;BME280;68279;48.964;14.502;2023-11-19T03:31:13;96962.97;;;1.60;100.00
78890;BME280;68279;48.964;14.502;2023-11-19T03:33:39;96967.78;;;1.63;100.00
78890;BME280;68279;48.964;14.502;2023-11-19T03:36:05;96975.44;;;1.64;100.00
78890;BME280;68279;48.964;14.502;2023-11-19T03:38:31;96979.38;;;1.74;100.00
78890;BME280;68279;48.964;14.502;2023-11-19T03:40:56;96972.50;;;1.73;100.00
78890;BME280;68279;48.964;14.502;2023-11-19T03:43:22;96966.75;;;1.76;100.00
78890;BME280;68279;48.964;14.502;2023-11-19T03:45:47;96966.56;;;1.77;100.00
78890;BME280;68279;48.964;14.502;2023-11-19T03:48:14;96964.81;;;1.71;100.00
78890;BME280;68279;48.964;14.502;2023-11-19T03:50:42;96965.63;;;1.72;100.00
78890;BME280;68279;48.964;14.502;2023-11-19T03:53:07;96950.75;;;1.77;100.00
78890;BME280;68279;48.964;14.502;2023-11-19T03:55:33;96947.72;;;1.74;100.00
78890;BME280;68279;48.964;14.502;2023-11-19T03:57:58;96944.78;;;1.82;100.00
78890;BME280;68279;48.964;14.502;2023-11-19T04:00:24;96936.06;;;1.81;100.00
78890;BME280;68279;48.964;14.502;2023-11-19T04:02:50;96936.53;;;1.78;100.00
78890;BME280;68279;48.964;14.502;2023-11-19T04:05:15;96929.84;;;1.76;100.00
78890;BME280;68279;48.964;14.502;2023-11-19T04:07:41;96919.31;;;1.76;100.00
78890;BME280;68279;48.964;14.502;2023-11-19T04:10:07;96928.00;;;1.76;100.00
78890;BME280;68279;48.964;14.502;2023-11-19T04:12:32;96918.72;;;1.74;100.00
78890;BME280;68279;48.964;14.502;2023-11-19T04:14:58;96919.09;;;1.77;100.00
78890;BME280;68279;48.964;14.502;2023-11-19T04:17:24;96911.41;;;1.76;100.00
78890;BME280;68279;48.964;14.502;2023-11-19T04:19:50;96901.44;;;1.78;100.00
78890;BME280;68279;48.964;14.502;2023-11-19T04:22:15;96902.44;;;1.77;100.00
78890;BME280;68279;48.964;14.502;2023-11-19T04:24:41;96887.22;;;1.79;100.00
78890;BME280;68279;48.964;14.502;2023-11-19T04:27:09;96890.91;;;1.78;100.00
78890;BME280;68279;48.964;14.502;2023-11-19T04:29:34;96879.75;;;1.76;100.00
78890;BME280;68279;48.964;14.502;2023-11-19T04:32:00;96879.91;;;1.81;100.00
78890;BME280;68279;48.964;14.502;2023-11-19T04:34:26;96873.81;;;1.80;100.00
78890;BME280;68279;48.964;14.502;2023-11-19T04:36:52;96877.72;;;1.89;100.00
78890;BME280;68279;48.964;14.502;2023-11-19T04:39:17;96875.88;;;1.90;100.00
78890;BME280;68279;48.964;14.502;2023-11-19T04:41:48;96880.34;;;1.89;100.00
78890;BME280;68279;48.964;14.502;2023-11-19T04:44:20;96869.56;;;1.91;100.00
78890;BME280;68279;48.964;14.502;2023-11-19T04:46:46;96862.84;;;1.95;100.00
78890;BME280;68279;48.964;14.502;2023-11-19T04:49:13;96865.34;;;2.02;100.00
78890;BME280;68279;48.964;14.502;2023-11-19T04:51:44;96864.19;;;2.09;100.00
78890;BME280;68279;48.964;14.502;2023-11-19T04:54:10;96863.28;;;2.04;100.00
78890;BME280;68279;48.964;14.502;2023-11-19T04:56:36;96852.50;;;2.05;100.00
78890;BME280;68279;48.964;14.502;2023-11-19T04:59:03;96853.19;;;2.01;100.00
78890;BME280;68279;48.964;14.502;2023-11-19T05:01:29;96846.63;;;2.03;100.00
78890;BME280;68279;48.964;14.502;2023-11-19T05:03:56;96851.69;;;2.05;100.00
78890;BME280;68279;48.964;14.502;2023-11-19T05:06:33;96837.47;;;2.06;100.00
78890;BME280;68279;48.964;14.502;2023-11-19T05:09:00;96831.41;;;2.05;100.00
78890;BME280;68279;48.964;14.502;2023-11-19T05:11:35;96828.53;;;2.07;100.00
78890;BME280;68279;48.964;14.502;2023-11-19T05:14:02;96831.84;;;2.14;100.00
78890;BME280;68279;48.964;14.502;2023-11-19T05:16:29;96814.63;;;2.11;100.00
78890;BME280;68279;48.964;14.502;2023-11-19T05:18:55;96818.44;;;2.15;100.00
78890;BME280;68279;48.964;14.502;2023-11-19T05:21:20;96827.03;;;2.11;100.00
78890;BME280;68279;48.964;14.502;2023-11-19T05:23:46;96823.34;;;2.12;100.00
78890;BME280;68279;48.964;14.502;2023-11-19T05:26:23;96813.47;;;2.19;100.00
78890;BME280;68279;48.964;14.502;2023-11-19T05:28:49;96809.34;;;2.23;100.00
78890;BME280;68279;48.964;14.502;2023-11-19T05:31:17;96802.81;;;2.25;100.00
78890;BME280;68279;48.964;14.502;2023-11-19T05:33:43;96802.25;;;2.23;100.00
78890;BME280;68279;48.964;14.502;2023-11-19T05:36:08;96806.72;;;2.23;100.00
78890;BME280;68279;48.964;14.502;2023-11-19T05:38:36;96786.19;;;2.25;100.00
78890;BME280;68279;48.964;14.502;2023-11-19T05:41:02;96762.53;;;2.30;100.00
78890;BME280;68279;48.964;14.502;2023-11-19T05:43:27;96756.00;;;2.33;100.00
78890;BME280;68279;48.964;14.502;2023-11-19T05:45:54;96764.94;;;2.32;100.00
78890;BME280;68279;48.964;14.502;2023-11-19T05:48:19;96768.28;;;2.27;100.00
78890;BME280;68279;48.964;14.502;2023-11-19T05:50:48;96786.84;;;2.32;100.00
78890;BME280;68279;48.964;14.502;2023-11-19T05:53:17;96793.97;;;2.32;100.00
78890;BME280;68279;48.964;14.502;2023-11-19T05:55:43;96746.72;;;2.30;100.00
78890;BME280;68279;48.964;14.502;2023-11-19T05:58:15;96750.94;;;2.31;100.00
78890;BME280;68279;48.964;14.502;2023-11-19T06:00:41;96743.91;;;2.37;100.00
78890;BME280;68279;48.964;14.502;2023-11-19T06:03:09;96742.00;;;2.32;100.00
78890;BME280;68279;48.964;14.502;2023-11-19T06:05:35;96759.44;;;2.33;100.00
78890;BME280;68279;48.964;14.502;2023-11-19T06:08:00;96742.88;;;2.38;100.00
78890;BME280;68279;48.964;14.502;2023-11-19T06:10:27;96742.56;;;2.34;100.00
78890;BME280;68279;48.964;14.502;2023-11-19T06:12:59;96738.88;;;2.35;100.00
78890;BME280;68279;48.964;14.502;2023-11-19T06:15:28;96729.00;;;2.42;100.00
78890;BME280;68279;48.964;14.502;2023-11-19T06:17:53;96729.78;;;2.43;100.00
78890;BME280;68279;48.964;14.502;2023-11-19T06:20:20;96735.97;;;2.48;100.00
78890;BME280;68279;48.964;14.502;2023-11-19T06:22:46;96731.50;;;2.49;100.00
78890;BME280;68279;48.964;14.502;2023-11-19T06:25:12;96746.53;;;2.48;100.00
78890;BME280;68279;48.964;14.502;2023-11-19T06:27:41;96754.28;;;2.55;100.00
78890;BME280;68279;48.964;14.502;2023-11-19T06:30:07;96750.41;;;2.58;100.00
78890;BME280;68279;48.964;14.502;2023-11-19T06:32:33;96754.41;;;2.60;100.00
78890;BME280;68279;48.964;14.502;2023-11-19T06:34:58;96731.94;;;2.58;100.00
78890;BME280;68279;48.964;14.502;2023-11-19T06:37:24;96725.22;;;2.67;100.00
78890;BME280;68279;48.964;14.502;2023-11-19T06:39:49;96722.81;;;2.65;100.00
78890;BME280;68279;48.964;14.502;2023-11-19T06:42:15;96722.91;;;2.70;100.00
78890;BME280;68279;48.964;14.502;2023-11-19T06:44:41;96710.25;;;2.72;100.00
78890;BME280;68279;48.964;14.502;2023-11-19T06:47:06;96702.56;;;2.71;100.00
78890;BME280;68279;48.964;14.502;2023-11-19T06:49:32;96693.84;;;2.70;100.00
78890;BME280;68279;48.964;14.502;2023-11-19T06:51:58;96709.56;;;2.77;100.00
78890;BME280;68279;48.964;14.502;2023-11-19T06:54:24;96722.69;;;2.89;100.00
78890;BME280;68279;48.964;14.502;2023-11-19T06:56:49;96726.53;;;2.98;100.00
78890;BME280;68279;48.964;14.502;2023-11-19T06:59:15;96715.09;;;3.09;100.00
78890;BME280;68279;48.964;14.502;2023-11-19T07:01:40;96717.56;;;3.16;100.00
78890;BME280;68279;48.964;14.502;2023-11-19T07:04:12;96716.78;;;3.15;100.00
78890;BME280;68279;48.964;14.502;2023-11-19T07:06:38;96705.66;;;3.13;100.00
78890;BME280;68279;48.964;14.502;2023-11-19T07:09:06;96707.91;;;3.21;100.00
78890;BME280;68279;48.964;14.502;2023-11-19T07:11:39;96714.88;;;3.27;100.00
78890;BME280;68279;48.964;14.502;2023-11-19T07:14:07;96714.44;;;3.35;100.00
78890;BME280;68279;48.964;14.502;2023-11-19T07:16:34;96719.91;;;3.46;100.00
78890;BME280;68279;48.964;14.502;2023-11-19T07:19:03;96730.22;;;3.47;100.00
78890;BME280;68279;48.964;14.502;2023-11-19T07:21:30;96740.06;;;3.52;100.00
78890;BME280;68279;48.964;14.502;2023-11-19T07:23:56;96737.56;;;3.62;100.00
78890;BME280;68279;48.964;14.502;2023-11-19T07:26:22;96752.72;;;3.66;100.00
78890;BME280;68279;48.964;14.502;2023-11-19T07:28:51;96755.19;;;3.73;100.00
78890;BME280;68279;48.964;14.502;2023-11-19T07:31:18;96754.69;;;3.76;100.00
78890;BME280;68279;48.964;14.502;2023-11-19T07:33:45;96765.66;;;3.85;100.00
78890;BME280;68279;48.964;14.502;2023-11-19T07:36:12;96760.47;;;3.90;100.00
78890;BME280;68279;48.964;14.502;2023-11-19T07:38:37;96766.34;;;3.97;100.00
78890;BME280;68279;48.964;14.502;2023-11-19T07:41:04;96772.44;;;3.97;100.00
78890;BME280;68279;48.964;14.502;2023-11-19T07:43:31;96784.66;;;3.98;100.00
78890;BME280;68279;48.964;14.502;2023-11-19T07:45:57;96785.13;;;3.95;100.00
78890;BME280;68279;48.964;14.502;2023-11-19T07:48:25;96789.38;;;3.96;100.00
78890;BME280;68279;48.964;14.502;2023-11-19T07:50:52;96765.88;;;4.00;100.00
78890;BME280;68279;48.964;14.502;2023-11-19T07:53:18;96764.88;;;4.06;100.00
78890;BME280;68279;48.964;14.502;2023-11-19T07:55:43;96784.53;;;4.10;100.00
78890;BME280;68279;48.964;14.502;2023-11-19T07:58:10;96781.34;;;4.08;100.00
78890;BME280;68279;48.964;14.502;2023-11-19T08:00:37;96782.78;;;4.16;100.00
78890;BME280;68279;48.964;14.502;2023-11-19T08:03:04;96771.44;;;4.20;100.00
78890;BME280;68279;48.964;14.502;2023-11-19T08:05:33;96762.50;;;4.26;100.00
78890;BME280;68279;48.964;14.502;2023-11-19T08:07:58;96781.84;;;4.27;100.00
78890;BME280;68279;48.964;14.502;2023-11-19T08:10:26;96772.09;;;4.33;100.00
78890;BME280;68279;48.964;14.502;2023-11-19T08:12:52;96770.41;;;4.43;100.00
78890;BME280;68279;48.964;14.502;2023-11-19T08:15:18;96758.38;;;4.58;100.00
78890;BME280;68279;48.964;14.502;2023-11-19T08:17:49;96761.06;;;4.63;100.00
78890;BME280;68279;48.964;14.502;2023-11-19T08:20:17;96769.06;;;4.68;100.00
78890;BME280;68279;48.964;14.502;2023-11-19T08:22:43;96762.50;;;4.70;100.00
78890;BME280;68279;48.964;14.502;2023-11-19T08:25:11;96766.38;;;4.63;100.00
78890;BME280;68279;48.964;14.502;2023-11-19T08:27:36;96763.47;;;4.64;100.00
78890;BME280;68279;48.964;14.502;2023-11-19T08:30:03;96759.53;;;4.67;100.00
78890;BME280;68279;48.964;14.502;2023-11-19T08:32:28;96759.06;;;4.75;100.00
78890;BME280;68279;48.964;14.502;2023-11-19T08:34:54;96760.22;;;4.84;100.00
78890;BME280;68279;48.964;14.502;2023-11-19T08:37:21;96757.03;;;4.82;100.00
78890;BME280;68279;48.964;14.502;2023-11-19T08:39:50;96746.25;;;4.89;100.00
78890;BME280;68279;48.964;14.502;2023-11-19T08:42:19;96752.16;;;4.96;100.00
78890;BME280;68279;48.964;14.502;2023-11-19T08:44:49;96749.00;;;4.99;100.00
78890;BME280;68279;48.964;14.502;2023-11-19T08:47:22;96748.22;;;5.03;100.00
78890;BME280;68279;48.964;14.502;2023-11-19T08:49:51;96743.78;;;5.09;100.00
78890;BME280;68279;48.964;14.502;2023-11-19T08:52:17;96743.53;;;5.10;100.00
78890;BME280;68279;48.964;14.502;2023-11-19T08:54:44;96735.16;;;5.24;100.00
78890;BME280;68279;48.964;14.502;2023-11-19T08:57:10;96739.22;;;5.36;100.00
78890;BME280;68279;48.964;14.502;2023-11-19T08:59:35;96736.38;;;5.43;100.00
78890;BME280;68279;48.964;14.502;2023-11-19T09:02:04;96728.16;;;5.45;100.00
78890;BME280;68279;48.964;14.502;2023-11-19T09:04:30;96727.41;;;5.49;100.00
78890;BME280;68279;48.964;14.502;2023-11-19T09:06:58;96733.03;;;5.63;100.00
78890;BME280;68279;48.964;14.502;2023-11-19T09:09:24;96727.00;;;5.67;100.00
78890;BME280;68279;48.964;14.502;2023-11-19T09:11:50;96709.22;;;5.73;100.00
78890;BME280;68279;48.964;14.502;2023-11-19T09:14:16;96712.75;;;5.84;100.00
78890;BME280;68279;48.964;14.502;2023-11-19T09:16:43;96710.50;;;6.03;100.00
78890;BME280;68279;48.964;14.502;2023-11-19T09:19:09;96722.19;;;6.07;100.00
78890;BME280;68279;48.964;14.502;2023-11-19T09:21:35;96726.16;;;6.09;100.00
78890;BME280;68279;48.964;14.502;2023-11-19T09:24:04;96720.31;;;6.02;100.00
78890;BME280;68279;48.964;14.502;2023-11-19T09:26:30;96729.88;;;6.08;100.00
78890;BME280;68279;48.964;14.502;2023-11-19T09:28:56;96721.69;;;6.15;100.00
78890;BME280;68279;48.964;14.502;2023-11-19T09:31:21;96711.09;;;6.20;100.00
78890;BME280;68279;48.964;14.502;2023-11-19T09:33:47;96719.38;;;6.34;100.00
78890;BME280;68279;48.964;14.502;2023-11-19T09:36:13;96714.31;;;6.32;100.00
78890;BME280;68279;48.964;14.502;2023-11-19T09:38:45;96720.16;;;6.29;100.00
78890;BME280;68279;48.964;14.502;2023-11-19T09:41:10;96711.59;;;6.17;100.00
78890;BME280;68279;48.964;14.502;2023-11-19T09:43:42;96712.63;;;6.06;100.00
78890;BME280;68279;48.964;14.502;2023-11-19T09:46:13;96710.78;;;6.11;100.00
78890;BME280;68279;48.964;14.502;2023-11-19T09:48:39;96701.78;;;6.17;100.00
78890;BME280;68279;48.964;14.502;2023-11-19T09:51:08;96701.75;;;6.07;100.00
78890;BME280;68279;48.964;14.502;2023-11-19T09:53:36;96705.56;;;6.32;100.00
78890;BME280;68279;48.964;14.502;2023-11-19T09:56:06;96700.31;;;6.62;100.00
78890;BME280;68279;48.964;14.502;2023-11-19T09:58:33;96685.47;;;6.97;100.00
78890;BME280;68279;48.964;14.502;2023-11-19T10:01:00;96682.56;;;7.14;100.00
78890;BME280;68279;48.964;14.502;2023-11-19T10:03:33;96687.34;;;7.12;100.00
78890;BME280;68279;48.964;14.502;2023-11-19T10:06:10;96691.59;;;7.23;98.67
78890;BME280;68279;48.964;14.502;2023-11-19T10:08:40;96687.84;;;7.49;99.13
78890;BME280;68279;48.964;14.502;2023-11-19T10:11:06;96687.28;;;7.73;97.88
78890;BME280;68279;48.964;14.502;2023-11-19T10:13:36;96677.97;;;7.80;98.03
78890;BME280;68279;48.964;14.502;2023-11-19T10:16:13;96676.88;;;7.76;97.15
78890;BME280;68279;48.964;14.502;2023-11-19T10:18:46;96680.00;;;8.04;96.78
78890;BME280;68279;48.964;14.502;2023-11-19T10:21:17;96661.34;;;8.04;96.90
78890;BME280;68279;48.964;14.502;2023-11-19T10:23:51;96679.00;;;7.89;96.82
78890;BME280;68279;48.964;14.502;2023-11-19T10:26:18;96669.69;;;7.87;96.33
78890;BME280;68279;48.964;14.502;2023-11-19T10:28:46;96677.00;;;8.26;94.88
78890;BME280;68279;48.964;14.502;2023-11-19T10:31:16;96652.19;;;8.30;95.56
78890;BME280;68279;48.964;14.502;2023-11-19T10:33:42;96648.47;;;8.26;95.67
78890;BME280;68279;48.964;14.502;2023-11-19T10:36:13;96642.66;;;8.19;94.05
78890;BME280;68279;48.964;14.502;2023-11-19T10:38:39;96656.25;;;8.12;95.69
78890;BME280;68279;48.964;14.502;2023-11-19T10:41:05;96642.16;;;8.12;95.24
78890;BME280;68279;48.964;14.502;2023-11-19T10:43:42;96643.41;;;8.35;94.78
78890;BME280;68279;48.964;14.502;2023-11-19T10:46:10;96657.97;;;8.52;94.75
78890;BME280;68279;48.964;14.502;2023-11-19T10:48:37;96660.13;;;8.50;93.67
78890;BME280;68279;48.964;14.502;2023-11-19T10:51:05;96657.50;;;8.85;94.51
78890;BME280;68279;48.964;14.502;2023-11-19T10:53:38;96659.56;;;8.93;94.42
78890;BME280;68279;48.964;14.502;2023-11-19T10:56:11;96648.25;;;9.06;93.54
78890;BME280;68279;48.964;14.502;2023-11-19T10:58:44;96663.09;;;9.17;91.75
78890;BME280;68279;48.964;14.502;2023-11-19T11:01:19;96652.28;;;9.32;92.30
78890;BME280;68279;48.964;14.502;2023-11-19T11:03:50;96653.16;;;9.52;92.98
78890;BME280;68279;48.964;14.502;2023-11-19T11:06:17;96650.00;;;9.50;91.62
78890;BME280;68279;48.964;14.502;2023-11-19T11:08:45;96648.31;;;9.59;90.93
78890;BME280;68279;48.964;14.502;2023-11-19T11:11:13;96647.97;;;9.65;90.74
78890;BME280;68279;48.964;14.502;2023-11-19T11:13:42;96637.19;;;9.76;90.08
78890;BME280;68279;48.964;14.502;2023-11-19T11:16:08;96636.97;;;9.72;91.49
78890;BME280;68279;48.964;14.502;2023-11-19T11:18:34;96635.81;;;9.78;89.55
78890;BME280;68279;48.964;14.502;2023-11-19T11:21:12;96635.75;;;9.83;90.05
78890;BME280;68279;48.964;14.502;2023-11-19T11:24:00;96638.25;;;9.75;90.74
78890;BME280;68279;48.964;14.502;2023-11-19T11:27:03;96630.09;;;9.66;91.90
78890;BME280;68279;48.964;14.502;2023-11-19T11:29:47;96628.19;;;9.67;91.29
78890;BME280;68279;48.964;14.502;2023-11-19T11:33:00;96627.00;;;9.78;90.65
78890;BME280;68279;48.964;14.502;2023-11-19T11:35:50;96625.75;;;9.94;88.91
78890;BME280;68279;48.964;14.502;2023-11-19T11:38:21;96627.28;;;10.00;88.00
78890;BME280;68279;48.964;14.502;2023-11-19T11:41:21;96615.53;;;10.01;88.02
78890;BME280;68279;48.964;14.502;2023-11-19T11:49:07;96624.16;;;10.17;88.41
78890;BME280;68279;48.964;14.502;2023-11-19T11:56:39;96613.63;;;10.26;86.59
78890;BME280;68279;48.964;14.502;2023-11-19T11:59:08;96618.84;;;10.36;88.23
78890;BME280;68279;48.964;14.502;2023-11-19T12:02:04;96609.53;;;10.52;86.48
78890;BME280;68279;48.964;14.502;2023-11-19T12:04:34;96614.22;;;10.60;85.21
78890;BME280;68279;48.964;14.502;2023-11-19T12:09:31;96613.91;;;10.81;84.94
78890;BME280;68279;48.964;14.502;2023-11-19T12:20:06;96595.66;;;11.61;81.94
78890;BME280;68279;48.964;14.502;2023-11-19T12:22:38;96602.25;;;11.37;82.41
78890;BME280;68279;48.964;14.502;2023-11-19T12:25:08;96604.03;;;11.27;82.38
78890;BME280;68279;48.964;14.502;2023-11-19T12:27:43;96623.84;;;10.94;83.16
78890;BME280;68279;48.964;14.502;2023-11-19T12:30:09;96610.44;;;10.80;83.75
78890;BME280;68279;48.964;14.502;2023-11-19T12:35:05;96624.19;;;10.73;83.93
78890;BME280;68279;48.964;14.502;2023-11-19T12:37:31;96615.66;;;10.71;84.60
78890;BME280;68279;48.964;14.502;2023-11-19T12:39:57;96610.16;;;10.63;85.87
78890;BME280;68279;48.964;14.502;2023-11-19T12:42:36;96610.97;;;10.63;85.61
78890;BME280;68279;48.964;14.502;2023-11-19T12:45:02;96608.44;;;10.72;84.60
78890;BME280;68279;48.964;14.502;2023-11-19T12:47:29;96604.88;;;10.76;85.19
78890;BME280;68279;48.964;14.502;2023-11-19T12:49:58;96594.75;;;10.73;85.28
78890;BME280;68279;48.964;14.502;2023-11-19T12:52:23;96598.81;;;10.71;85.96
78890;BME280;68279;48.964;14.502;2023-11-19T12:54:49;96596.03;;;10.76;84.88
78890;BME280;68279;48.964;14.502;2023-11-19T12:57:15;96595.19;;;10.81;84.10
78890;BME280;68279;48.964;14.502;2023-11-19T12:59:41;96591.00;;;10.74;84.94
78890;BME280;68279;48.964;14.502;2023-11-19T13:02:08;96591.00;;;10.74;86.11
78890;BME280;68279;48.964;14.502;2023-11-19T13:04:34;96600.66;;;10.89;84.35
78890;BME280;68279;48.964;14.502;2023-11-19T13:07:00;96593.56;;;11.12;83.92
78890;BME280;68279;48.964;14.502;2023-11-19T13:09:26;96592.88;;;11.67;81.28
78890;BME280;68279;48.964;14.502;2023-11-19T13:11:53;96594.56;;;11.76;80.90
78890;BME280;68279;48.964;14.502;2023-11-19T13:14:20;96589.78;;;11.73;82.60
78890;BME280;68279;48.964;14.502;2023-11-19T13:16:45;96591.66;;;11.73;79.70